»·PEaware :: N537TW KLAX-KSAN

N537TW :: KLAX-KSAN

FLIGHT INFORMATION

Flight Status: Arrived
Operator: Privately registered:
United States
More flights under this callsign
Pilot: Anonymous 20880 (20880)
Aircraft: Unknown
(P06T)
More flights by this aircraft type
Origin: KLAX Los Angeles Intl
United States
Destination: KSAN San Diego Intl-Lindbergh
United States
More flights between these airports :: More routes between these airports
Route:
File this flight plan on PilotEdge
Remarks: Cat11
Altitude:
(Current/Filed)
5,500ft
Speed:
(Current/Filed)
140kts
Departed: 04-Dec-18 12:27 PM
Arrived: 04-Dec-18 01:13 PM
Distance/Time
Traveled:
95nm/0:45
Distance/Time
To Go:
Arrived

Flight Plot

Page will automatically refresh every two minutes.


Map Options




Map Legend


Flown Route
Filed Route
Departure Airport
Arrival Airport
Navaid (VOR, NDB)
Fix

Horizontal Profiles

Position Reports

Time Latitude Longitude Heading Altitude Ground
Speed
04-Dec-18 12:07 33.934147 -118.395575 175 106ft 0kts
04-Dec-18 12:08 33.934147 -118.395575 175 106ft 0kts
04-Dec-18 12:09 33.934147 -118.395575 175 106ft 0kts
04-Dec-18 12:10 33.934147 -118.395575 175 106ft 0kts
04-Dec-18 12:11 33.934147 -118.395575 175 106ft 0kts
04-Dec-18 12:12 33.934147 -118.395575 175 106ft 0kts
04-Dec-18 12:13 33.934147 -118.395575 175 106ft 0kts
04-Dec-18 12:14 33.934147 -118.395575 175 106ft 0kts
04-Dec-18 12:15 33.934147 -118.395575 175 106ft 0kts
04-Dec-18 12:16 33.934147 -118.395575 175 106ft 0kts
04-Dec-18 12:17 33.934147 -118.395575 175 106ft 0kts
04-Dec-18 12:18 33.934147 -118.395575 175 106ft 0kts
04-Dec-18 12:19 33.934144 -118.395575 174 106ft 0kts
04-Dec-18 12:20 33.935237 -118.391504 83 102ft 22kts
04-Dec-18 12:21 33.935917 -118.384820 83 99ft 13kts
04-Dec-18 12:22 33.936089 -118.383158 74 96ft 0kts
04-Dec-18 12:23 33.936089 -118.383158 74 96ft 0kts
04-Dec-18 12:24 33.936089 -118.383158 74 96ft 0kts
04-Dec-18 12:25 33.937277 -118.383398 266 96ft 16kts
04-Dec-18 12:26 33.935311 -118.415151 267 866ft 122kts
04-Dec-18 12:27 33.933262 -118.458021 267 1880ft 131kts
04-Dec-18 12:28 33.918225 -118.490985 171 2846ft 129kts
04-Dec-18 12:29 33.877549 -118.485473 171 2904ft 156kts
04-Dec-18 12:30 33.833979 -118.478684 171 2904ft 159kts
04-Dec-18 12:31 33.797886 -118.449136 141 2906ft 159kts
04-Dec-18 12:32 33.763164 -118.416410 141 2908ft 158kts
04-Dec-18 12:33 33.728566 -118.383618 141 2908ft 158kts
04-Dec-18 12:34 33.694544 -118.351491 141 3166ft 150kts
04-Dec-18 12:35 33.662528 -118.320445 138 3659ft 147kts
04-Dec-18 12:36 33.634010 -118.285312 132 4154ft 147kts
04-Dec-18 12:37 33.605524 -118.249901 132 4651ft 148kts
04-Dec-18 12:38 33.578283 -118.216212 132 5157ft 137kts
04-Dec-18 12:39 33.551907 -118.183668 133 5500ft 141kts
04-Dec-18 12:40 33.527606 -118.146035 116 5498ft 145kts
04-Dec-18 12:41 33.510032 -118.102248 115 5497ft 146kts
04-Dec-18 12:42 33.492678 -118.058020 114 5497ft 147kts
04-Dec-18 12:43 33.474211 -118.010693 113 5499ft 162kts
04-Dec-18 12:44 33.454997 -117.961498 114 5499ft 163kts
04-Dec-18 12:45 33.435778 -117.912409 114 5536ft 163kts
04-Dec-18 12:46 33.416394 -117.862992 113 5535ft 164kts
04-Dec-18 12:47 33.397054 -117.813788 113 5523ft 152kts
04-Dec-18 12:48 33.380055 -117.770521 113 5037ft 132kts
04-Dec-18 12:49 33.365655 -117.733828 113 4524ft 127kts
04-Dec-18 12:50 33.350389 -117.695131 113 3777ft 126kts
04-Dec-18 12:51 33.337525 -117.662526 112 3452ft 98kts
04-Dec-18 12:52 33.324621 -117.629694 112 2881ft 129kts
04-Dec-18 12:53 33.307745 -117.587021 113 2872ft 147kts
04-Dec-18 12:54 33.287776 -117.547134 121 3362ft 137kts
04-Dec-18 12:55 33.266419 -117.508295 121 3527ft 145kts
04-Dec-18 12:56 33.243137 -117.467986 123 3525ft 148kts
04-Dec-18 12:57 33.215804 -117.430299 129 3505ft 152kts
04-Dec-18 12:58 33.188084 -117.390797 125 3497ft 159kts
04-Dec-18 12:59 33.157050 -117.352434 136 3494ft 162kts
04-Dec-18 13:00 33.118909 -117.325086 159 3491ft 162kts
04-Dec-18 13:01 33.076592 -117.306729 162 3491ft 162kts
04-Dec-18 13:02 33.033822 -117.289275 161 3492ft 162kts
04-Dec-18 13:03 32.991194 -117.271890 161 3494ft 163kts
04-Dec-18 13:04 32.948352 -117.256072 165 3462ft 156kts
04-Dec-18 13:05 32.906984 -117.242178 166 3463ft 155kts
04-Dec-18 13:06 32.865028 -117.229898 168 3465ft 157kts
04-Dec-18 13:07 32.821991 -117.218889 169 3467ft 159kts
04-Dec-18 13:08 32.790882 -117.210874 160 3381ft 68kts
04-Dec-18 13:09 32.762662 -117.196562 156 1758ft 125kts
04-Dec-18 13:10 32.739294 -117.172822 108 1248ft 106kts
04-Dec-18 13:11 32.730330 -117.176657 285 130ft 73kts
04-Dec-18 13:12 32.733990 -117.188051 29 17ft 12kts
04-Dec-18 13:13 32.734180 -117.187777 58 17ft 0kts
04-Dec-18 13:14 32.734016 -117.186768 106 17ft 22kts
04-Dec-18 13:15 32.732540 -117.179383 33 20ft 11kts

Navigation Log

Ident Type
Flight plan parsing failed, navigation log unavailable